sensor_id;sensor_type;location;lat;lon;timestamp;P1;durP1;ratioP1;P2;durP2;ratioP2
76357;SDS011;65185;21.060;105.826;2022-11-15T00:00:47;151.05;;;86.20;;
76357;SDS011;65185;21.060;105.826;2022-11-15T00:03:17;113.22;;;67.65;;
76357;SDS011;65185;21.060;105.826;2022-11-15T00:05:46;98.50;;;61.58;;
76357;SDS011;65185;21.060;105.826;2022-11-15T00:08:14;95.65;;;61.15;;
76357;SDS011;65185;21.060;105.826;2022-11-15T00:10:40;86.97;;;54.72;;
76357;SDS011;65185;21.060;105.826;2022-11-15T00:13:11;100.95;;;63.72;;
76357;SDS011;65185;21.060;105.826;2022-11-15T00:15:39;106.82;;;62.15;;
76357;SDS011;65185;21.060;105.826;2022-11-15T00:18:11;90.88;;;55.38;;
76357;SDS011;65185;21.060;105.826;2022-11-15T00:20:39;87.88;;;55.08;;
76357;SDS011;65185;21.060;105.826;2022-11-15T00:23:06;91.75;;;55.03;;
76357;SDS011;65185;21.060;105.826;2022-11-15T00:25:33;98.85;;;60.88;;
76357;SDS011;65185;21.060;105.826;2022-11-15T00:28:01;100.45;;;61.28;;
76357;SDS011;65185;21.060;105.826;2022-11-15T00:30:28;98.43;;;59.67;;
76357;SDS011;65185;21.060;105.826;2022-11-15T00:32:55;100.30;;;58.58;;
76357;SDS011;65185;21.060;105.826;2022-11-15T00:35:22;98.82;;;59.75;;
76357;SDS011;65185;21.060;105.826;2022-11-15T00:37:49;100.25;;;60.50;;
76357;SDS011;65185;21.060;105.826;2022-11-15T00:40:18;108.82;;;65.60;;
76357;SDS011;65185;21.060;105.826;2022-11-15T00:42:45;98.57;;;59.10;;
76357;SDS011;65185;21.060;105.826;2022-11-15T00:45:12;92.53;;;54.25;;
76357;SDS011;65185;21.060;105.826;2022-11-15T00:47:39;94.82;;;55.38;;
76357;SDS011;65185;21.060;105.826;2022-11-15T00:50:06;89.00;;;52.47;;
76357;SDS011;65185;21.060;105.826;2022-11-15T00:52:33;95.97;;;55.75;;
76357;SDS011;65185;21.060;105.826;2022-11-15T00:55:00;99.13;;;57.05;;
76357;SDS011;65185;21.060;105.826;2022-11-15T00:57:26;100.25;;;54.63;;
76357;SDS011;65185;21.060;105.826;2022-11-15T00:59:53;94.70;;;52.38;;
76357;SDS011;65185;21.060;105.826;2022-11-15T01:02:20;102.95;;;57.60;;
76357;SDS011;65185;21.060;105.826;2022-11-15T01:04:47;103.38;;;55.60;;
76357;SDS011;65185;21.060;105.826;2022-11-15T01:07:14;108.10;;;52.75;;
76357;SDS011;65185;21.060;105.826;2022-11-15T01:09:41;88.18;;;52.92;;
76357;SDS011;65185;21.060;105.826;2022-11-15T01:12:08;90.95;;;52.05;;
76357;SDS011;65185;21.060;105.826;2022-11-15T01:14:34;96.53;;;52.40;;
76357;SDS011;65185;21.060;105.826;2022-11-15T01:17:01;95.03;;;54.17;;
76357;SDS011;65185;21.060;105.826;2022-11-15T01:19:28;107.53;;;58.20;;
76357;SDS011;65185;21.060;105.826;2022-11-15T01:21:55;93.88;;;52.63;;
76357;SDS011;65185;21.060;105.826;2022-11-15T01:24:22;90.95;;;51.88;;
76357;SDS011;65185;21.060;105.826;2022-11-15T01:26:49;96.60;;;53.30;;
76357;SDS011;65185;21.060;105.826;2022-11-15T01:29:16;93.05;;;51.05;;
76357;SDS011;65185;21.060;105.826;2022-11-15T01:31:43;86.15;;;47.88;;
76357;SDS011;65185;21.060;105.826;2022-11-15T01:34:10;85.90;;;47.03;;
76357;SDS011;65185;21.060;105.826;2022-11-15T01:36:38;81.78;;;46.13;;
76357;SDS011;65185;21.060;105.826;2022-11-15T01:39:05;81.78;;;47.88;;
76357;SDS011;65185;21.060;105.826;2022-11-15T01:41:32;80.22;;;44.97;;
76357;SDS011;65185;21.060;105.826;2022-11-15T01:47:00;77.30;;;44.58;;
76357;SDS011;65185;21.060;105.826;2022-11-15T01:49:32;83.35;;;45.70;;
76357;SDS011;65185;21.060;105.826;2022-11-15T01:52:02;89.32;;;47.95;;
76357;SDS011;65185;21.060;105.826;2022-11-15T01:54:33;81.95;;;43.63;;
76357;SDS011;65185;21.060;105.826;2022-11-15T01:57:09;84.82;;;45.55;;
76357;SDS011;65185;21.060;105.826;2022-11-15T01:59:40;79.28;;;45.95;;
76357;SDS011;65185;21.060;105.826;2022-11-15T02:02:09;83.78;;;48.72;;
76357;SDS011;65185;21.060;105.826;2022-11-15T02:04:46;80.22;;;46.78;;
76357;SDS011;65185;21.060;105.826;2022-11-15T02:07:17;81.82;;;46.25;;
76357;SDS011;65185;21.060;105.826;2022-11-15T02:09:46;84.65;;;46.05;;
76357;SDS011;65185;21.060;105.826;2022-11-15T02:12:14;76.38;;;41.80;;
76357;SDS011;65185;21.060;105.826;2022-11-15T02:14:45;73.50;;;43.42;;
76357;SDS011;65185;21.060;105.826;2022-11-15T02:30:53;85.13;;;47.60;;
76357;SDS011;65185;21.060;105.826;2022-11-15T02:36:36;70.05;;;40.03;;
76357;SDS011;65185;21.060;105.826;2022-11-15T02:39:10;69.65;;;38.92;;
76357;SDS011;65185;21.060;105.826;2022-11-15T02:42:07;69.13;;;38.25;;
76357;SDS011;65185;21.060;105.826;2022-11-15T02:45:30;81.60;;;42.53;;
76357;SDS011;65185;21.060;105.826;2022-11-15T02:48:01;74.65;;;45.70;;
76357;SDS011;65185;21.060;105.826;2022-11-15T02:50:31;85.38;;;50.28;;
76357;SDS011;65185;21.060;105.826;2022-11-15T02:52:59;78.85;;;43.50;;
76357;SDS011;65185;21.060;105.826;2022-11-15T02:55:26;76.47;;;41.30;;
76357;SDS011;65185;21.060;105.826;2022-11-15T03:01:13;70.60;;;38.30;;
76357;SDS011;65185;21.060;105.826;2022-11-15T03:06:35;67.80;;;37.65;;
76357;SDS011;65185;21.060;105.826;2022-11-15T03:09:07;63.45;;;36.20;;
76357;SDS011;65185;21.060;105.826;2022-11-15T03:12:04;81.72;;;43.00;;
76357;SDS011;65185;21.060;105.826;2022-11-15T03:14:40;71.55;;;39.72;;
76357;SDS011;65185;21.060;105.826;2022-11-15T03:17:36;75.38;;;40.30;;
76357;SDS011;65185;21.060;105.826;2022-11-15T03:20:13;71.57;;;43.00;;
76357;SDS011;65185;21.060;105.826;2022-11-15T03:22:44;82.47;;;44.42;;
76357;SDS011;65185;21.060;105.826;2022-11-15T03:25:16;71.00;;;42.78;;
76357;SDS011;65185;21.060;105.826;2022-11-15T03:27:48;88.60;;;50.10;;
76357;SDS011;65185;21.060;105.826;2022-11-15T03:30:21;67.72;;;37.35;;
76357;SDS011;65185;21.060;105.826;2022-11-15T03:32:53;68.65;;;40.38;;
76357;SDS011;65185;21.060;105.826;2022-11-15T03:35:23;62.90;;;36.33;;
76357;SDS011;65185;21.060;105.826;2022-11-15T03:37:57;75.22;;;40.40;;
76357;SDS011;65185;21.060;105.826;2022-11-15T03:40:41;64.68;;;39.60;;
76357;SDS011;65185;21.060;105.826;2022-11-15T03:46:07;76.38;;;46.28;;
76357;SDS011;65185;21.060;105.826;2022-11-15T03:48:43;83.53;;;46.92;;
76357;SDS011;65185;21.060;105.826;2022-11-15T03:51:16;75.68;;;44.30;;
76357;SDS011;65185;21.060;105.826;2022-11-15T03:53:43;70.28;;;39.50;;
76357;SDS011;65185;21.060;105.826;2022-11-15T03:56:11;76.22;;;42.95;;
76357;SDS011;65185;21.060;105.826;2022-11-15T03:58:38;71.68;;;43.58;;
76357;SDS011;65185;21.060;105.826;2022-11-15T04:01:05;74.60;;;42.80;;
76357;SDS011;65185;21.060;105.826;2022-11-15T04:03:32;66.22;;;38.15;;
76357;SDS011;65185;21.060;105.826;2022-11-15T04:05:58;61.58;;;37.08;;
76357;SDS011;65185;21.060;105.826;2022-11-15T04:08:25;58.65;;;37.20;;
76357;SDS011;65185;21.060;105.826;2022-11-15T04:10:52;65.20;;;39.63;;
76357;SDS011;65185;21.060;105.826;2022-11-15T04:13:19;64.40;;;34.63;;
76357;SDS011;65185;21.060;105.826;2022-11-15T04:15:46;65.93;;;39.10;;
76357;SDS011;65185;21.060;105.826;2022-11-15T04:18:13;69.35;;;40.30;;
76357;SDS011;65185;21.060;105.826;2022-11-15T04:20:43;71.53;;;42.03;;
76357;SDS011;65185;21.060;105.826;2022-11-15T04:23:31;64.85;;;40.63;;
76357;SDS011;65185;21.060;105.826;2022-11-15T04:26:16;55.10;;;34.53;;
76357;SDS011;65185;21.060;105.826;2022-11-15T04:28:46;64.97;;;37.08;;
76357;SDS011;65185;21.060;105.826;2022-11-15T04:31:31;61.60;;;37.03;;
76357;SDS011;65185;21.060;105.826;2022-11-15T04:33:58;58.17;;;36.67;;
76357;SDS011;65185;21.060;105.826;2022-11-15T04:36:25;58.88;;;36.45;;
76357;SDS011;65185;21.060;105.826;2022-11-15T04:39:10;73.20;;;44.20;;
76357;SDS011;65185;21.060;105.826;2022-11-15T04:41:37;76.28;;;38.67;;
76357;SDS011;65185;21.060;105.826;2022-11-15T04:44:04;57.03;;;36.72;;
76357;SDS011;65185;21.060;105.826;2022-11-15T04:46:31;69.70;;;41.65;;
76357;SDS011;65185;21.060;105.826;2022-11-15T04:48:57;56.60;;;36.67;;
76357;SDS011;65185;21.060;105.826;2022-11-15T04:51:24;62.85;;;40.55;;
76357;SDS011;65185;21.060;105.826;2022-11-15T04:53:52;70.95;;;41.13;;
76357;SDS011;65185;21.060;105.826;2022-11-15T04:56:19;65.43;;;38.15;;
76357;SDS011;65185;21.060;105.826;2022-11-15T04:58:48;55.35;;;37.30;;
76357;SDS011;65185;21.060;105.826;2022-11-15T05:01:16;57.35;;;36.40;;
76357;SDS011;65185;21.060;105.826;2022-11-15T05:03:43;72.68;;;44.85;;
76357;SDS011;65185;21.060;105.826;2022-11-15T05:06:29;74.28;;;45.78;;
76357;SDS011;65185;21.060;105.826;2022-11-15T05:08:56;70.60;;;44.42;;
76357;SDS011;65185;21.060;105.826;2022-11-15T05:11:23;68.18;;;43.63;;
76357;SDS011;65185;21.060;105.826;2022-11-15T05:13:53;60.47;;;42.35;;
76357;SDS011;65185;21.060;105.826;2022-11-15T05:16:20;54.20;;;37.28;;
76357;SDS011;65185;21.060;105.826;2022-11-15T05:18:50;59.90;;;38.33;;
76357;SDS011;65185;21.060;105.826;2022-11-15T05:21:20;55.97;;;36.67;;
76357;SDS011;65185;21.060;105.826;2022-11-15T05:23:48;54.63;;;35.38;;
76357;SDS011;65185;21.060;105.826;2022-11-15T05:26:16;64.47;;;41.13;;
76357;SDS011;65185;21.060;105.826;2022-11-15T05:28:44;52.13;;;34.50;;
76357;SDS011;65185;21.060;105.826;2022-11-15T05:31:14;49.92;;;31.50;;
76357;SDS011;65185;21.060;105.826;2022-11-15T05:33:42;46.08;;;30.35;;
76357;SDS011;65185;21.060;105.826;2022-11-15T05:36:25;56.65;;;34.25;;
76357;SDS011;65185;21.060;105.826;2022-11-15T05:38:53;51.60;;;34.60;;
76357;SDS011;65185;21.060;105.826;2022-11-15T05:41:22;58.25;;;37.85;;
76357;SDS011;65185;21.060;105.826;2022-11-15T05:43:56;64.18;;;40.17;;
76357;SDS011;65185;21.060;105.826;2022-11-15T05:46:25;59.88;;;39.33;;
76357;SDS011;65185;21.060;105.826;2022-11-15T05:48:55;61.03;;;31.17;;
76357;SDS011;65185;21.060;105.826;2022-11-15T05:51:26;43.38;;;27.20;;
76357;SDS011;65185;21.060;105.826;2022-11-15T05:53:54;40.00;;;28.10;;
76357;SDS011;65185;21.060;105.826;2022-11-15T05:56:24;49.65;;;31.55;;
76357;SDS011;65185;21.060;105.826;2022-11-15T05:58:53;47.13;;;33.08;;
76357;SDS011;65185;21.060;105.826;2022-11-15T06:01:23;49.38;;;28.98;;
76357;SDS011;65185;21.060;105.826;2022-11-15T06:03:52;54.45;;;32.80;;
76357;SDS011;65185;21.060;105.826;2022-11-15T06:06:19;49.85;;;31.02;;
76357;SDS011;65185;21.060;105.826;2022-11-15T06:08:46;44.65;;;29.40;;
76357;SDS011;65185;21.060;105.826;2022-11-15T06:11:13;47.28;;;29.63;;
76357;SDS011;65185;21.060;105.826;2022-11-15T06:13:40;48.28;;;29.70;;
76357;SDS011;65185;21.060;105.826;2022-11-15T06:16:07;48.72;;;29.55;;
76357;SDS011;65185;21.060;105.826;2022-11-15T06:18:34;49.75;;;32.10;;
76357;SDS011;65185;21.060;105.826;2022-11-15T06:21:01;58.38;;;35.38;;
76357;SDS011;65185;21.060;105.826;2022-11-15T06:23:28;57.13;;;35.72;;
76357;SDS011;65185;21.060;105.826;2022-11-15T06:25:58;53.15;;;32.58;;
76357;SDS011;65185;21.060;105.826;2022-11-15T06:28:30;62.58;;;37.22;;
76357;SDS011;65185;21.060;105.826;2022-11-15T06:31:16;55.67;;;33.03;;
76357;SDS011;65185;21.060;105.826;2022-11-15T06:33:43;54.40;;;33.78;;
76357;SDS011;65185;21.060;105.826;2022-11-15T06:36:11;58.90;;;35.97;;
76357;SDS011;65185;21.060;105.826;2022-11-15T06:38:43;53.67;;;32.75;;
76357;SDS011;65185;21.060;105.826;2022-11-15T06:41:11;50.70;;;32.85;;
76357;SDS011;65185;21.060;105.826;2022-11-15T06:43:39;54.25;;;34.55;;
76357;SDS011;65185;21.060;105.826;2022-11-15T06:46:06;43.90;;;26.33;;
76357;SDS011;65185;21.060;105.826;2022-11-15T06:48:34;47.13;;;29.23;;
76357;SDS011;65185;21.060;105.826;2022-11-15T06:51:02;44.67;;;27.20;;
76357;SDS011;65185;21.060;105.826;2022-11-15T06:53:30;47.72;;;29.17;;
76357;SDS011;65185;21.060;105.826;2022-11-15T06:55:58;48.75;;;29.80;;
76357;SDS011;65185;21.060;105.826;2022-11-15T06:58:26;47.95;;;30.10;;
76357;SDS011;65185;21.060;105.826;2022-11-15T07:00:57;50.33;;;29.38;;
76357;SDS011;65185;21.060;105.826;2022-11-15T07:03:25;49.40;;;29.00;;
76357;SDS011;65185;21.060;105.826;2022-11-15T07:05:53;52.42;;;32.42;;
76357;SDS011;65185;21.060;105.826;2022-11-15T07:08:22;56.10;;;33.17;;
76357;SDS011;65185;21.060;105.826;2022-11-15T07:10:49;48.92;;;29.20;;
76357;SDS011;65185;21.060;105.826;2022-11-15T07:13:17;43.00;;;26.60;;
76357;SDS011;65185;21.060;105.826;2022-11-15T07:15:44;38.67;;;24.98;;
76357;SDS011;65185;21.060;105.826;2022-11-15T07:18:11;38.55;;;26.17;;
76357;SDS011;65185;21.060;105.826;2022-11-15T07:20:38;42.17;;;25.88;;
76357;SDS011;65185;21.060;105.826;2022-11-15T07:23:05;42.65;;;28.60;;
76357;SDS011;65185;21.060;105.826;2022-11-15T07:25:32;46.20;;;29.30;;
76357;SDS011;65185;21.060;105.826;2022-11-15T07:28:00;47.22;;;28.67;;
76357;SDS011;65185;21.060;105.826;2022-11-15T07:30:27;44.65;;;27.83;;
76357;SDS011;65185;21.060;105.826;2022-11-15T07:32:55;51.08;;;30.45;;
76357;SDS011;65185;21.060;105.826;2022-11-15T07:35:24;43.20;;;27.90;;
76357;SDS011;65185;21.060;105.826;2022-11-15T07:37:59;50.70;;;32.25;;
76357;SDS011;65185;21.060;105.826;2022-11-15T07:40:27;50.95;;;31.58;;
76357;SDS011;65185;21.060;105.826;2022-11-15T07:43:00;42.30;;;28.05;;
76357;SDS011;65185;21.060;105.826;2022-11-15T07:45:28;44.60;;;26.27;;
76357;SDS011;65185;21.060;105.826;2022-11-15T07:47:54;43.75;;;27.15;;
76357;SDS011;65185;21.060;105.826;2022-11-15T07:50:22;36.90;;;23.83;;
76357;SDS011;65185;21.060;105.826;2022-11-15T07:52:55;44.88;;;30.05;;
76357;SDS011;65185;21.060;105.826;2022-11-15T07:55:24;40.45;;;27.27;;
76357;SDS011;65185;21.060;105.826;2022-11-15T07:57:52;41.42;;;26.90;;
76357;SDS011;65185;21.060;105.826;2022-11-15T08:00:19;40.75;;;26.50;;
76357;SDS011;65185;21.060;105.826;2022-11-15T08:02:45;36.55;;;26.23;;
76357;SDS011;65185;21.060;105.826;2022-11-15T08:05:13;37.30;;;24.63;;
76357;SDS011;65185;21.060;105.826;2022-11-15T08:07:39;35.45;;;23.90;;
76357;SDS011;65185;21.060;105.826;2022-11-15T08:10:06;37.15;;;22.98;;
76357;SDS011;65185;21.060;105.826;2022-11-15T08:12:33;37.58;;;23.50;;
76357;SDS011;65185;21.060;105.826;2022-11-15T08:15:00;34.35;;;22.33;;
76357;SDS011;65185;21.060;105.826;2022-11-15T08:17:26;37.38;;;23.35;;
76357;SDS011;65185;21.060;105.826;2022-11-15T08:19:57;40.78;;;22.40;;
76357;SDS011;65185;21.060;105.826;2022-11-15T08:22:23;39.25;;;23.45;;
76357;SDS011;65185;21.060;105.826;2022-11-15T08:24:50;29.70;;;18.08;;
76357;SDS011;65185;21.060;105.826;2022-11-15T08:27:16;34.83;;;17.88;;
76357;SDS011;65185;21.060;105.826;2022-11-15T08:29:43;36.17;;;18.30;;
76357;SDS011;65185;21.060;105.826;2022-11-15T08:32:10;36.63;;;19.30;;
76357;SDS011;65185;21.060;105.826;2022-11-15T08:34:37;31.77;;;17.92;;
76357;SDS011;65185;21.060;105.826;2022-11-15T08:37:04;33.42;;;18.50;;
76357;SDS011;65185;21.060;105.826;2022-11-15T08:39:31;68.43;;;35.97;;
76357;SDS011;65185;21.060;105.826;2022-11-15T08:41:58;83.25;;;39.20;;
76357;SDS011;65185;21.060;105.826;2022-11-15T08:44:24;52.70;;;26.10;;
76357;SDS011;65185;21.060;105.826;2022-11-15T08:46:51;34.38;;;19.27;;
76357;SDS011;65185;21.060;105.826;2022-11-15T08:49:17;37.75;;;19.90;;
76357;SDS011;65185;21.060;105.826;2022-11-15T08:51:44;31.30;;;16.73;;
76357;SDS011;65185;21.060;105.826;2022-11-15T08:54:11;28.77;;;16.38;;
76357;SDS011;65185;21.060;105.826;2022-11-15T08:56:37;25.02;;;14.70;;
76357;SDS011;65185;21.060;105.826;2022-11-15T08:59:04;32.20;;;18.15;;
76357;SDS011;65185;21.060;105.826;2022-11-15T09:01:30;26.95;;;18.05;;
76357;SDS011;65185;21.060;105.826;2022-11-15T09:03:57;28.48;;;16.27;;
76357;SDS011;65185;21.060;105.826;2022-11-15T09:06:24;32.67;;;17.48;;
76357;SDS011;65185;21.060;105.826;2022-11-15T09:08:51;31.63;;;16.50;;
76357;SDS011;65185;21.060;105.826;2022-11-15T09:11:17;32.78;;;18.77;;
76357;SDS011;65185;21.060;105.826;2022-11-15T09:13:46;32.92;;;17.13;;
76357;SDS011;65185;21.060;105.826;2022-11-15T09:16:13;30.58;;;16.92;;
76357;SDS011;65185;21.060;105.826;2022-11-15T09:18:40;30.20;;;17.42;;
76357;SDS011;65185;21.060;105.826;2022-11-15T09:21:07;29.27;;;16.25;;
76357;SDS011;65185;21.060;105.826;2022-11-15T09:23:34;30.63;;;16.08;;
76357;SDS011;65185;21.060;105.826;2022-11-15T09:26:01;32.30;;;16.88;;
76357;SDS011;65185;21.060;105.826;2022-11-15T09:28:30;33.78;;;17.77;;
76357;SDS011;65185;21.060;105.826;2022-11-15T09:31:01;30.35;;;17.05;;
76357;SDS011;65185;21.060;105.826;2022-11-15T09:33:29;33.75;;;17.48;;
76357;SDS011;65185;21.060;105.826;2022-11-15T09:36:06;37.33;;;19.30;;
76357;SDS011;65185;21.060;105.826;2022-11-15T09:38:34;37.92;;;19.23;;
76357;SDS011;65185;21.060;105.826;2022-11-15T09:46:37;27.17;;;14.20;;
76357;SDS011;65185;21.060;105.826;2022-11-15T09:49:21;27.40;;;13.90;;
76357;SDS011;65185;21.060;105.826;2022-11-15T09:51:53;31.92;;;15.63;;
76357;SDS011;65185;21.060;105.826;2022-11-15T09:54:26;32.92;;;14.98;;
76357;SDS011;65185;21.060;105.826;2022-11-15T09:57:11;31.60;;;16.35;;
76357;SDS011;65185;21.060;105.826;2022-11-15T10:05:43;38.25;;;21.50;;
76357;SDS011;65185;21.060;105.826;2022-11-15T10:11:15;38.33;;;18.05;;
76357;SDS011;65185;21.060;105.826;2022-11-15T10:13:50;33.40;;;18.48;;
76357;SDS011;65185;21.060;105.826;2022-11-15T10:22:16;33.22;;;19.80;;
76357;SDS011;65185;21.060;105.826;2022-11-15T10:24:18;35.28;;;18.40;;
76357;SDS011;65185;21.060;105.826;2022-11-15T10:26:50;38.95;;;20.40;;
76357;SDS011;65185;21.060;105.826;2022-11-15T10:29:20;32.97;;;18.73;;
76357;SDS011;65185;21.060;105.826;2022-11-15T10:31:47;32.60;;;19.33;;
76357;SDS011;65185;21.060;105.826;2022-11-15T10:34:18;36.08;;;19.33;;
76357;SDS011;65185;21.060;105.826;2022-11-15T10:36:56;38.78;;;20.10;;
76357;SDS011;65185;21.060;105.826;2022-11-15T10:39:24;34.63;;;22.08;;
76357;SDS011;65185;21.060;105.826;2022-11-15T10:41:51;40.92;;;19.77;;
76357;SDS011;65185;21.060;105.826;2022-11-15T10:44:30;37.60;;;20.02;;
76357;SDS011;65185;21.060;105.826;2022-11-15T10:49:27;42.42;;;23.10;;
76357;SDS011;65185;21.060;105.826;2022-11-15T10:54:29;41.05;;;22.42;;
76357;SDS011;65185;21.060;105.826;2022-11-15T10:57:14;35.88;;;23.02;;
76357;SDS011;65185;21.060;105.826;2022-11-15T10:59:44;34.67;;;23.33;;
76357;SDS011;65185;21.060;105.826;2022-11-15T11:02:27;43.72;;;27.80;;
76357;SDS011;65185;21.060;105.826;2022-11-15T11:04:54;41.38;;;22.63;;
76357;SDS011;65185;21.060;105.826;2022-11-15T11:07:22;36.80;;;21.67;;
76357;SDS011;65185;21.060;105.826;2022-11-15T11:09:58;36.30;;;20.27;;
76357;SDS011;65185;21.060;105.826;2022-11-15T11:12:32;35.97;;;20.63;;
76357;SDS011;65185;21.060;105.826;2022-11-15T11:15:00;33.95;;;20.85;;
76357;SDS011;65185;21.060;105.826;2022-11-15T11:22:32;35.60;;;20.13;;
76357;SDS011;65185;21.060;105.826;2022-11-15T11:46:20;37.25;;;21.48;;
76357;SDS011;65185;21.060;105.826;2022-11-15T11:49:02;33.03;;;21.33;;
76357;SDS011;65185;21.060;105.826;2022-11-15T11:51:53;33.00;;;21.35;;
76357;SDS011;65185;21.060;105.826;2022-11-15T12:00:21;35.85;;;19.92;;
76357;SDS011;65185;21.060;105.826;2022-11-15T12:03:02;38.75;;;21.70;;
76357;SDS011;65185;21.060;105.826;2022-11-15T12:12:07;35.25;;;21.70;;
76357;SDS011;65185;21.060;105.826;2022-11-15T12:16:59;38.50;;;23.70;;
76357;SDS011;65185;21.060;105.826;2022-11-15T12:19:26;40.92;;;24.23;;
76357;SDS011;65185;21.060;105.826;2022-11-15T12:24:32;41.50;;;23.02;;
76357;SDS011;65185;21.060;105.826;2022-11-15T12:30:04;39.83;;;22.17;;
76357;SDS011;65185;21.060;105.826;2022-11-15T12:32:51;35.75;;;20.73;;
76357;SDS011;65185;21.060;105.826;2022-11-15T12:37:58;34.13;;;17.35;;
76357;SDS011;65185;21.060;105.826;2022-11-15T12:40:30;30.25;;;17.48;;
76357;SDS011;65185;21.060;105.826;2022-11-15T12:42:59;31.90;;;17.25;;
76357;SDS011;65185;21.060;105.826;2022-11-15T12:45:36;31.65;;;17.70;;
76357;SDS011;65185;21.060;105.826;2022-11-15T12:58:46;38.88;;;19.75;;
76357;SDS011;65185;21.060;105.826;2022-11-15T13:06:53;34.60;;;18.52;;
76357;SDS011;65185;21.060;105.826;2022-11-15T13:12:06;30.38;;;18.23;;
76357;SDS011;65185;21.060;105.826;2022-11-15T13:14:54;34.10;;;18.83;;
76357;SDS011;65185;21.060;105.826;2022-11-15T13:20:00;38.10;;;19.13;;
76357;SDS011;65185;21.060;105.826;2022-11-15T13:22:41;29.58;;;18.17;;
76357;SDS011;65185;21.060;105.826;2022-11-15T13:30:54;30.50;;;17.63;;
76357;SDS011;65185;21.060;105.826;2022-11-15T13:33:33;31.13;;;17.20;;
76357;SDS011;65185;21.060;105.826;2022-11-15T13:36:15;28.58;;;17.67;;
76357;SDS011;65185;21.060;105.826;2022-11-15T13:39:00;32.22;;;17.05;;
76357;SDS011;65185;21.060;105.826;2022-11-15T13:41:33;33.15;;;18.42;;
76357;SDS011;65185;21.060;105.826;2022-11-15T13:44:01;28.08;;;16.63;;
76357;SDS011;65185;21.060;105.826;2022-11-15T13:46:33;29.85;;;17.42;;
76357;SDS011;65185;21.060;105.826;2022-11-15T13:49:01;28.65;;;17.65;;
76357;SDS011;65185;21.060;105.826;2022-11-15T13:51:38;32.47;;;17.58;;
76357;SDS011;65185;21.060;105.826;2022-11-15T13:56:53;29.67;;;16.80;;
76357;SDS011;65185;21.060;105.826;2022-11-15T13:59:25;29.02;;;16.88;;
76357;SDS011;65185;21.060;105.826;2022-11-15T14:01:55;33.00;;;16.38;;
76357;SDS011;65185;21.060;105.826;2022-11-15T14:04:25;35.25;;;17.52;;
76357;SDS011;65185;21.060;105.826;2022-11-15T14:06:59;29.08;;;17.67;;
76357;SDS011;65185;21.060;105.826;2022-11-15T14:09:40;33.88;;;17.23;;
76357;SDS011;65185;21.060;105.826;2022-11-15T14:12:26;29.80;;;17.30;;
76357;SDS011;65185;21.060;105.826;2022-11-15T14:14:59;31.25;;;16.77;;
76357;SDS011;65185;21.060;105.826;2022-11-15T14:19:54;34.42;;;17.00;;
76357;SDS011;65185;21.060;105.826;2022-11-15T14:22:25;32.65;;;17.33;;
76357;SDS011;65185;21.060;105.826;2022-11-15T14:27:41;31.15;;;16.63;;
76357;SDS011;65185;21.060;105.826;2022-11-15T14:30:16;27.52;;;15.45;;
76357;SDS011;65185;21.060;105.826;2022-11-15T14:32:50;30.98;;;16.35;;
76357;SDS011;65185;21.060;105.826;2022-11-15T14:35:20;30.13;;;15.90;;
76357;SDS011;65185;21.060;105.826;2022-11-15T14:37:48;30.88;;;18.00;;
76357;SDS011;65185;21.060;105.826;2022-11-15T14:40:19;29.55;;;18.02;;
76357;SDS011;65185;21.060;105.826;2022-11-15T14:42:47;29.50;;;16.52;;
76357;SDS011;65185;21.060;105.826;2022-11-15T14:45:16;28.20;;;16.20;;
76357;SDS011;65185;21.060;105.826;2022-11-15T14:47:47;29.38;;;16.98;;
76357;SDS011;65185;21.060;105.826;2022-11-15T14:50:15;30.73;;;17.20;;
76357;SDS011;65185;21.060;105.826;2022-11-15T14:52:46;28.92;;;17.15;;
76357;SDS011;65185;21.060;105.826;2022-11-15T14:55:24;31.25;;;17.45;;
76357;SDS011;65185;21.060;105.826;2022-11-15T14:57:53;35.97;;;17.55;;
76357;SDS011;65185;21.060;105.826;2022-11-15T15:00:21;33.85;;;17.10;;
76357;SDS011;65185;21.060;105.826;2022-11-15T15:02:48;28.92;;;15.70;;
76357;SDS011;65185;21.060;105.826;2022-11-15T15:05:18;34.63;;;17.42;;
76357;SDS011;65185;21.060;105.826;2022-11-15T15:07:47;33.80;;;17.83;;
76357;SDS011;65185;21.060;105.826;2022-11-15T15:10:14;31.02;;;16.90;;
76357;SDS011;65185;21.060;105.826;2022-11-15T15:12:42;34.90;;;18.92;;
76357;SDS011;65185;21.060;105.826;2022-11-15T15:15:12;32.83;;;17.75;;
76357;SDS011;65185;21.060;105.826;2022-11-15T15:17:45;28.48;;;16.20;;
76357;SDS011;65185;21.060;105.826;2022-11-15T15:20:12;30.08;;;15.90;;
76357;SDS011;65185;21.060;105.826;2022-11-15T15:22:38;33.40;;;19.15;;
76357;SDS011;65185;21.060;105.826;2022-11-15T15:25:18;36.25;;;18.83;;
76357;SDS011;65185;21.060;105.826;2022-11-15T15:27:51;34.50;;;18.30;;
76357;SDS011;65185;21.060;105.826;2022-11-15T15:30:17;34.67;;;19.20;;
76357;SDS011;65185;21.060;105.826;2022-11-15T15:32:44;33.42;;;19.20;;
76357;SDS011;65185;21.060;105.826;2022-11-15T15:35:14;24.58;;;16.35;;
76357;SDS011;65185;21.060;105.826;2022-11-15T15:37:41;30.35;;;18.58;;
76357;SDS011;65185;21.060;105.826;2022-11-15T15:40:28;31.13;;;17.27;;
76357;SDS011;65185;21.060;105.826;2022-11-15T15:42:57;30.73;;;17.25;;
76357;SDS011;65185;21.060;105.826;2022-11-15T15:45:24;33.38;;;18.45;;
76357;SDS011;65185;21.060;105.826;2022-11-15T15:47:52;30.75;;;18.08;;
76357;SDS011;65185;21.060;105.826;2022-11-15T15:50:24;34.45;;;18.85;;
76357;SDS011;65185;21.060;105.826;2022-11-15T15:52:51;36.75;;;17.98;;
76357;SDS011;65185;21.060;105.826;2022-11-15T15:55:19;27.38;;;16.90;;
76357;SDS011;65185;21.060;105.826;2022-11-15T15:57:47;37.22;;;18.10;;
76357;SDS011;65185;21.060;105.826;2022-11-15T16:00:14;29.88;;;17.27;;
76357;SDS011;65185;21.060;105.826;2022-11-15T16:02:42;32.65;;;17.85;;
76357;SDS011;65185;21.060;105.826;2022-11-15T16:05:09;33.42;;;17.98;;
76357;SDS011;65185;21.060;105.826;2022-11-15T16:07:36;31.00;;;17.45;;
76357;SDS011;65185;21.060;105.826;2022-11-15T16:12:48;31.15;;;17.75;;
76357;SDS011;65185;21.060;105.826;2022-11-15T16:15:15;30.83;;;18.98;;
76357;SDS011;65185;21.060;105.826;2022-11-15T16:17:44;28.05;;;17.08;;
76357;SDS011;65185;21.060;105.826;2022-11-15T16:20:26;31.17;;;17.75;;
76357;SDS011;65185;21.060;105.826;2022-11-15T16:23:08;30.80;;;17.80;;
76357;SDS011;65185;21.060;105.826;2022-11-15T16:25:57;31.40;;;19.10;;
76357;SDS011;65185;21.060;105.826;2022-11-15T16:28:27;30.02;;;17.20;;
76357;SDS011;65185;21.060;105.826;2022-11-15T16:31:05;30.33;;;17.70;;
76357;SDS011;65185;21.060;105.826;2022-11-15T16:33:34;32.58;;;17.45;;
76357;SDS011;65185;21.060;105.826;2022-11-15T16:36:03;30.42;;;17.67;;